메인 페이지
METAR-TAF:

METAR-TAF

공항 :

카이로, 이집트

카이로 국제공항

위도: 30-08N, 경도: 031-24E, 고도: 64m

현재 날씨관측

예보는 33분 전, 09:00시(UTC)에 발표되었습니다.
남남서18kt
온도 18°C
습도 42%
기압 1015 hPa
시정: 4000m
모래

METAR: HECA 180900Z 21018KT 4000 SA NSC 18/05 Q1015 NOSIG

시각: 11:33 (09:33 UTC)

예보

예보는 3 시간 35분 전, 05:58시(UTC)에 발표되었습니다.
예보 대상 시간: 18일 06시부터 19일 12시까지 (UTC)
남남서12kt
시정 10km 이상
고도 2500ft 상공 구름 조금
일시적
18일 06시부터 18일 20시까지 (UTC)
시정: 6000m
일시적
18일 06시부터 18일 18시까지 (UTC)
시정: 4000m
모래
일시적
18일 11시부터 18일 18시까지 (UTC)
15kt, 순간 최대 풍속 25kt
시정: 2000m
일시적
18일 20시부터 18일 24시까지 (UTC)
시정: 5000m
고도 2000ft 상공 구름 많음
약한비

TAF: HECA 180558Z 1806/1912 20012KT 9999 FEW025 TEMPO 1806/1820 6000 NSC TEMPO 1806/1818 4000 SA TEMPO 1811/1818 28015G25KT 2000 TEMPO 1820/1824 5000 -RA BKN020

4,000개 이상의 공항 관측 자료 및 예보 (METAR 및 TAF 보고).

지도상에서 검색 가능한 기상관측소가 노란 점과 빨간 점으로 표시되어 있습니다.

기상관측소 명을 보려면 표시 위로 마우스를 이동하세요.

날씨 관측과 예보를 보려면 클릭하세요.

지도 변경 : 확대하려면 엑스 표시가 있는 녹색 버튼, 축소하려면 빼기 표시가 있는 녹색 버튼, 다음 페이지의 지도를 보려면 녹색 화살표를 클릭하세요.


METAR-TAF: